sensor_id;sensor_type;location;lat;lon;timestamp;P1;durP1;ratioP1;P2;durP2;ratioP2
55037;SDS011;40937;53.594;10.034;2022-10-17T00:00:32;9.05;;;4.43;;
55037;SDS011;40937;53.594;10.034;2022-10-17T00:03:02;11.80;;;4.32;;
55037;SDS011;40937;53.594;10.034;2022-10-17T00:05:37;8.68;;;4.53;;
55037;SDS011;40937;53.594;10.034;2022-10-17T00:08:25;9.95;;;4.78;;
55037;SDS011;40937;53.594;10.034;2022-10-17T00:11:22;8.27;;;4.18;;
55037;SDS011;40937;53.594;10.034;2022-10-17T00:14:00;9.57;;;3.85;;
55037;SDS011;40937;53.594;10.034;2022-10-17T00:16:43;10.97;;;4.97;;
55037;SDS011;40937;53.594;10.034;2022-10-17T00:19:16;13.68;;;4.72;;
55037;SDS011;40937;53.594;10.034;2022-10-17T00:21:51;9.52;;;4.00;;
55037;SDS011;40937;53.594;10.034;2022-10-17T00:24:17;5.38;;;3.55;;
55037;SDS011;40937;53.594;10.034;2022-10-17T00:26:44;7.03;;;3.40;;
55037;SDS011;40937;53.594;10.034;2022-10-17T00:31:53;8.43;;;3.90;;
55037;SDS011;40937;53.594;10.034;2022-10-17T00:34:22;14.13;;;3.95;;
55037;SDS011;40937;53.594;10.034;2022-10-17T00:36:50;7.50;;;4.15;;
55037;SDS011;40937;53.594;10.034;2022-10-17T00:39:17;5.95;;;3.33;;
55037;SDS011;40937;53.594;10.034;2022-10-17T00:41:46;10.30;;;3.88;;
55037;SDS011;40937;53.594;10.034;2022-10-17T00:49:47;6.53;;;3.45;;
55037;SDS011;40937;53.594;10.034;2022-10-17T00:52:14;6.85;;;3.72;;
55037;SDS011;40937;53.594;10.034;2022-10-17T00:54:47;7.57;;;3.72;;
55037;SDS011;40937;53.594;10.034;2022-10-17T00:57:15;6.75;;;3.17;;
55037;SDS011;40937;53.594;10.034;2022-10-17T00:59:42;7.97;;;3.58;;
55037;SDS011;40937;53.594;10.034;2022-10-17T01:04:47;10.25;;;3.47;;
55037;SDS011;40937;53.594;10.034;2022-10-17T01:07:16;12.02;;;3.60;;
55037;SDS011;40937;53.594;10.034;2022-10-17T01:09:44;5.43;;;3.20;;
55037;SDS011;40937;53.594;10.034;2022-10-17T01:12:14;9.88;;;3.45;;
55037;SDS011;40937;53.594;10.034;2022-10-17T01:14:49;9.27;;;3.70;;
55037;SDS011;40937;53.594;10.034;2022-10-17T01:17:26;9.15;;;3.38;;
55037;SDS011;40937;53.594;10.034;2022-10-17T01:22:57;7.20;;;3.70;;
55037;SDS011;40937;53.594;10.034;2022-10-17T01:25:39;6.95;;;3.42;;
55037;SDS011;40937;53.594;10.034;2022-10-17T01:28:19;8.45;;;3.38;;
55037;SDS011;40937;53.594;10.034;2022-10-17T01:31:09;9.02;;;3.03;;
55037;SDS011;40937;53.594;10.034;2022-10-17T01:33:44;7.80;;;3.80;;
55037;SDS011;40937;53.594;10.034;2022-10-17T01:36:19;9.65;;;3.15;;
55037;SDS011;40937;53.594;10.034;2022-10-17T01:38:59;6.72;;;2.80;;
55037;SDS011;40937;53.594;10.034;2022-10-17T01:41:33;9.55;;;3.15;;
55037;SDS011;40937;53.594;10.034;2022-10-17T01:44:07;10.10;;;3.30;;
55037;SDS011;40937;53.594;10.034;2022-10-17T01:46:39;6.83;;;3.03;;
55037;SDS011;40937;53.594;10.034;2022-10-17T01:49:09;5.68;;;2.90;;
55037;SDS011;40937;53.594;10.034;2022-10-17T01:51:40;10.05;;;3.30;;
55037;SDS011;40937;53.594;10.034;2022-10-17T01:54:10;7.25;;;3.53;;
55037;SDS011;40937;53.594;10.034;2022-10-17T01:56:41;9.00;;;2.70;;
55037;SDS011;40937;53.594;10.034;2022-10-17T01:59:11;6.88;;;2.80;;
55037;SDS011;40937;53.594;10.034;2022-10-17T02:01:46;6.32;;;2.70;;
55037;SDS011;40937;53.594;10.034;2022-10-17T02:04:15;5.15;;;2.15;;
55037;SDS011;40937;53.594;10.034;2022-10-17T02:06:42;6.15;;;2.42;;
55037;SDS011;40937;53.594;10.034;2022-10-17T02:09:15;6.55;;;2.67;;
55037;SDS011;40937;53.594;10.034;2022-10-17T02:11:46;5.22;;;2.45;;
55037;SDS011;40937;53.594;10.034;2022-10-17T02:14:24;7.40;;;2.63;;
55037;SDS011;40937;53.594;10.034;2022-10-17T02:17:04;7.15;;;2.42;;
55037;SDS011;40937;53.594;10.034;2022-10-17T02:19:42;4.35;;;2.40;;
55037;SDS011;40937;53.594;10.034;2022-10-17T02:22:18;8.70;;;2.70;;
55037;SDS011;40937;53.594;10.034;2022-10-17T02:24:53;6.38;;;2.58;;
55037;SDS011;40937;53.594;10.034;2022-10-17T02:27:32;4.90;;;2.72;;
55037;SDS011;40937;53.594;10.034;2022-10-17T02:30:05;4.85;;;2.50;;
55037;SDS011;40937;53.594;10.034;2022-10-17T02:32:39;5.07;;;2.35;;
55037;SDS011;40937;53.594;10.034;2022-10-17T02:35:12;8.15;;;2.90;;
55037;SDS011;40937;53.594;10.034;2022-10-17T02:37:41;7.28;;;2.58;;
55037;SDS011;40937;53.594;10.034;2022-10-17T02:40:11;6.28;;;2.40;;
55037;SDS011;40937;53.594;10.034;2022-10-17T02:42:41;6.90;;;2.42;;
55037;SDS011;40937;53.594;10.034;2022-10-17T02:45:10;4.00;;;1.90;;
55037;SDS011;40937;53.594;10.034;2022-10-17T02:47:41;6.35;;;2.42;;
55037;SDS011;40937;53.594;10.034;2022-10-17T02:50:16;5.72;;;2.10;;
55037;SDS011;40937;53.594;10.034;2022-10-17T02:52:47;3.83;;;2.13;;
55037;SDS011;40937;53.594;10.034;2022-10-17T02:55:22;4.45;;;2.70;;
55037;SDS011;40937;53.594;10.034;2022-10-17T02:57:52;5.65;;;2.58;;
55037;SDS011;40937;53.594;10.034;2022-10-17T03:00:21;3.22;;;2.20;;
55037;SDS011;40937;53.594;10.034;2022-10-17T03:02:51;3.47;;;2.22;;
55037;SDS011;40937;53.594;10.034;2022-10-17T03:05:20;8.25;;;2.47;;
55037;SDS011;40937;53.594;10.034;2022-10-17T03:07:48;5.38;;;2.03;;
55037;SDS011;40937;53.594;10.034;2022-10-17T03:10:15;7.65;;;2.42;;
55037;SDS011;40937;53.594;10.034;2022-10-17T03:12:42;5.57;;;2.38;;
55037;SDS011;40937;53.594;10.034;2022-10-17T03:15:10;3.80;;;2.00;;
55037;SDS011;40937;53.594;10.034;2022-10-17T03:17:39;5.20;;;2.17;;
55037;SDS011;40937;53.594;10.034;2022-10-17T03:20:08;5.57;;;2.28;;
55037;SDS011;40937;53.594;10.034;2022-10-17T03:22:35;7.82;;;2.10;;
55037;SDS011;40937;53.594;10.034;2022-10-17T03:25:04;2.10;;;1.95;;
55037;SDS011;40937;53.594;10.034;2022-10-17T03:27:33;3.75;;;1.90;;
55037;SDS011;40937;53.594;10.034;2022-10-17T03:30:00;3.13;;;1.95;;
55037;SDS011;40937;53.594;10.034;2022-10-17T03:32:28;3.13;;;2.13;;
55037;SDS011;40937;53.594;10.034;2022-10-17T03:34:55;4.50;;;2.10;;
55037;SDS011;40937;53.594;10.034;2022-10-17T03:37:23;3.15;;;2.00;;
55037;SDS011;40937;53.594;10.034;2022-10-17T03:39:50;4.32;;;1.95;;
55037;SDS011;40937;53.594;10.034;2022-10-17T03:42:16;4.78;;;2.05;;
55037;SDS011;40937;53.594;10.034;2022-10-17T03:44:44;4.68;;;2.13;;
55037;SDS011;40937;53.594;10.034;2022-10-17T03:47:11;5.57;;;2.17;;
55037;SDS011;40937;53.594;10.034;2022-10-17T03:49:38;2.47;;;1.60;;
55037;SDS011;40937;53.594;10.034;2022-10-17T03:52:04;2.92;;;1.80;;
55037;SDS011;40937;53.594;10.034;2022-10-17T03:54:32;3.70;;;1.73;;
55037;SDS011;40937;53.594;10.034;2022-10-17T03:56:59;5.80;;;1.98;;
55037;SDS011;40937;53.594;10.034;2022-10-17T03:59:25;5.35;;;1.77;;
55037;SDS011;40937;53.594;10.034;2022-10-17T04:02:00;2.97;;;1.98;;
55037;SDS011;40937;53.594;10.034;2022-10-17T04:04:26;6.20;;;1.98;;
55037;SDS011;40937;53.594;10.034;2022-10-17T04:06:53;3.08;;;1.88;;
55037;SDS011;40937;53.594;10.034;2022-10-17T04:09:20;6.45;;;2.10;;
55037;SDS011;40937;53.594;10.034;2022-10-17T04:12:06;4.40;;;2.15;;
55037;SDS011;40937;53.594;10.034;2022-10-17T04:14:35;4.35;;;1.90;;
55037;SDS011;40937;53.594;10.034;2022-10-17T04:17:02;5.78;;;1.92;;
55037;SDS011;40937;53.594;10.034;2022-10-17T04:19:29;5.78;;;2.17;;
55037;SDS011;40937;53.594;10.034;2022-10-17T04:21:56;3.47;;;1.83;;
55037;SDS011;40937;53.594;10.034;2022-10-17T04:24:24;5.22;;;1.83;;
55037;SDS011;40937;53.594;10.034;2022-10-17T04:27:16;3.17;;;2.03;;
55037;SDS011;40937;53.594;10.034;2022-10-17T04:29:44;3.40;;;2.00;;
55037;SDS011;40937;53.594;10.034;2022-10-17T04:32:22;3.95;;;1.85;;
55037;SDS011;40937;53.594;10.034;2022-10-17T04:35:00;4.00;;;1.98;;
55037;SDS011;40937;53.594;10.034;2022-10-17T04:37:27;4.93;;;2.20;;
55037;SDS011;40937;53.594;10.034;2022-10-17T04:39:55;3.38;;;1.92;;
55037;SDS011;40937;53.594;10.034;2022-10-17T04:42:23;3.47;;;1.55;;
55037;SDS011;40937;53.594;10.034;2022-10-17T04:44:52;2.70;;;1.92;;
55037;SDS011;40937;53.594;10.034;2022-10-17T04:47:22;3.03;;;2.15;;
55037;SDS011;40937;53.594;10.034;2022-10-17T04:49:49;2.75;;;1.80;;
55037;SDS011;40937;53.594;10.034;2022-10-17T04:52:15;4.53;;;1.90;;
55037;SDS011;40937;53.594;10.034;2022-10-17T04:54:44;4.25;;;1.77;;
55037;SDS011;40937;53.594;10.034;2022-10-17T04:57:12;3.67;;;2.03;;
55037;SDS011;40937;53.594;10.034;2022-10-17T04:59:41;6.85;;;2.05;;
55037;SDS011;40937;53.594;10.034;2022-10-17T05:02:34;7.85;;;2.33;;
55037;SDS011;40937;53.594;10.034;2022-10-17T05:05:02;5.05;;;2.30;;
55037;SDS011;40937;53.594;10.034;2022-10-17T05:07:29;4.53;;;2.10;;
55037;SDS011;40937;53.594;10.034;2022-10-17T05:10:10;4.80;;;2.22;;
55037;SDS011;40937;53.594;10.034;2022-10-17T05:12:39;3.55;;;1.90;;
55037;SDS011;40937;53.594;10.034;2022-10-17T05:15:08;6.72;;;2.17;;
55037;SDS011;40937;53.594;10.034;2022-10-17T05:17:35;5.53;;;2.00;;
55037;SDS011;40937;53.594;10.034;2022-10-17T05:20:02;4.45;;;2.00;;
55037;SDS011;40937;53.594;10.034;2022-10-17T05:22:31;5.00;;;2.40;;
55037;SDS011;40937;53.594;10.034;2022-10-17T05:24:58;2.30;;;2.10;;
55037;SDS011;40937;53.594;10.034;2022-10-17T05:27:24;5.65;;;2.17;;
55037;SDS011;40937;53.594;10.034;2022-10-17T05:29:51;6.13;;;2.33;;
55037;SDS011;40937;53.594;10.034;2022-10-17T05:32:25;4.22;;;2.42;;
55037;SDS011;40937;53.594;10.034;2022-10-17T05:34:52;4.20;;;2.30;;
55037;SDS011;40937;53.594;10.034;2022-10-17T05:37:20;7.28;;;2.00;;
55037;SDS011;40937;53.594;10.034;2022-10-17T05:39:49;3.67;;;2.10;;
55037;SDS011;40937;53.594;10.034;2022-10-17T05:42:16;13.10;;;2.83;;
55037;SDS011;40937;53.594;10.034;2022-10-17T05:44:44;4.25;;;2.28;;
55037;SDS011;40937;53.594;10.034;2022-10-17T05:47:13;8.27;;;2.28;;
55037;SDS011;40937;53.594;10.034;2022-10-17T05:49:44;5.47;;;2.45;;
55037;SDS011;40937;53.594;10.034;2022-10-17T05:52:11;6.13;;;2.60;;
55037;SDS011;40937;53.594;10.034;2022-10-17T05:54:52;3.60;;;2.20;;
55037;SDS011;40937;53.594;10.034;2022-10-17T05:57:19;3.05;;;2.63;;
55037;SDS011;40937;53.594;10.034;2022-10-17T05:59:46;6.47;;;2.90;;
55037;SDS011;40937;53.594;10.034;2022-10-17T06:02:17;6.13;;;2.63;;
55037;SDS011;40937;53.594;10.034;2022-10-17T06:04:45;3.75;;;2.45;;
55037;SDS011;40937;53.594;10.034;2022-10-17T06:07:13;2.40;;;2.20;;
55037;SDS011;40937;53.594;10.034;2022-10-17T06:09:42;4.25;;;2.42;;
55037;SDS011;40937;53.594;10.034;2022-10-17T06:12:09;2.22;;;2.10;;
55037;SDS011;40937;53.594;10.034;2022-10-17T06:14:36;10.18;;;2.70;;
55037;SDS011;40937;53.594;10.034;2022-10-17T06:17:04;5.30;;;2.40;;
55037;SDS011;40937;53.594;10.034;2022-10-17T06:19:31;5.78;;;2.22;;
55037;SDS011;40937;53.594;10.034;2022-10-17T06:21:59;4.75;;;2.08;;
55037;SDS011;40937;53.594;10.034;2022-10-17T06:24:26;4.05;;;2.22;;
55037;SDS011;40937;53.594;10.034;2022-10-17T06:26:54;5.28;;;2.80;;
55037;SDS011;40937;53.594;10.034;2022-10-17T06:29:21;5.85;;;2.65;;
55037;SDS011;40937;53.594;10.034;2022-10-17T06:31:51;2.53;;;2.25;;
55037;SDS011;40937;53.594;10.034;2022-10-17T06:34:19;4.50;;;2.35;;
55037;SDS011;40937;53.594;10.034;2022-10-17T06:36:46;14.32;;;2.65;;
55037;SDS011;40937;53.594;10.034;2022-10-17T06:39:15;2.42;;;2.22;;
55037;SDS011;40937;53.594;10.034;2022-10-17T06:41:48;4.35;;;3.08;;
55037;SDS011;40937;53.594;10.034;2022-10-17T06:44:18;9.13;;;2.70;;
55037;SDS011;40937;53.594;10.034;2022-10-17T06:47:04;3.58;;;2.50;;
55037;SDS011;40937;53.594;10.034;2022-10-17T06:49:31;7.20;;;2.67;;
55037;SDS011;40937;53.594;10.034;2022-10-17T06:52:12;3.38;;;2.28;;
55037;SDS011;40937;53.594;10.034;2022-10-17T06:54:52;7.20;;;2.65;;
55037;SDS011;40937;53.594;10.034;2022-10-17T06:57:29;3.63;;;2.28;;
55037;SDS011;40937;53.594;10.034;2022-10-17T07:00:19;3.03;;;2.47;;
55037;SDS011;40937;53.594;10.034;2022-10-17T07:02:50;6.45;;;2.13;;
55037;SDS011;40937;53.594;10.034;2022-10-17T07:05:17;3.50;;;2.55;;
55037;SDS011;40937;53.594;10.034;2022-10-17T07:07:44;8.43;;;2.65;;
55037;SDS011;40937;53.594;10.034;2022-10-17T07:10:12;3.97;;;2.63;;
55037;SDS011;40937;53.594;10.034;2022-10-17T07:12:39;3.00;;;2.15;;
55037;SDS011;40937;53.594;10.034;2022-10-17T07:15:09;5.25;;;2.78;;
55037;SDS011;40937;53.594;10.034;2022-10-17T07:17:36;4.53;;;2.35;;
55037;SDS011;40937;53.594;10.034;2022-10-17T07:20:03;5.32;;;2.72;;
55037;SDS011;40937;53.594;10.034;2022-10-17T07:22:32;7.65;;;2.72;;
55037;SDS011;40937;53.594;10.034;2022-10-17T07:25:00;6.25;;;2.60;;
55037;SDS011;40937;53.594;10.034;2022-10-17T07:27:33;5.28;;;2.55;;
55037;SDS011;40937;53.594;10.034;2022-10-17T07:30:00;3.38;;;2.47;;
55037;SDS011;40937;53.594;10.034;2022-10-17T07:32:33;4.13;;;2.97;;
55037;SDS011;40937;53.594;10.034;2022-10-17T07:35:01;3.10;;;2.80;;
55037;SDS011;40937;53.594;10.034;2022-10-17T07:37:28;3.40;;;2.70;;
55037;SDS011;40937;53.594;10.034;2022-10-17T07:39:55;3.22;;;2.28;;
55037;SDS011;40937;53.594;10.034;2022-10-17T07:42:22;4.57;;;2.88;;
55037;SDS011;40937;53.594;10.034;2022-10-17T07:44:50;5.68;;;2.60;;
55037;SDS011;40937;53.594;10.034;2022-10-17T07:47:18;5.93;;;3.00;;
55037;SDS011;40937;53.594;10.034;2022-10-17T07:49:46;8.63;;;2.65;;
55037;SDS011;40937;53.594;10.034;2022-10-17T07:52:13;7.22;;;2.88;;
55037;SDS011;40937;53.594;10.034;2022-10-17T07:54:40;9.07;;;2.83;;
55037;SDS011;40937;53.594;10.034;2022-10-17T07:57:07;8.18;;;2.83;;
55037;SDS011;40937;53.594;10.034;2022-10-17T07:59:34;8.23;;;2.92;;
55037;SDS011;40937;53.594;10.034;2022-10-17T08:02:04;3.45;;;2.90;;
55037;SDS011;40937;53.594;10.034;2022-10-17T08:04:32;5.90;;;2.88;;
55037;SDS011;40937;53.594;10.034;2022-10-17T08:07:00;5.10;;;3.35;;
55037;SDS011;40937;53.594;10.034;2022-10-17T08:09:27;7.80;;;3.33;;
55037;SDS011;40937;53.594;10.034;2022-10-17T08:11:53;2.83;;;2.53;;
55037;SDS011;40937;53.594;10.034;2022-10-17T08:14:20;4.97;;;2.60;;
55037;SDS011;40937;53.594;10.034;2022-10-17T08:16:46;8.25;;;2.92;;
55037;SDS011;40937;53.594;10.034;2022-10-17T08:19:14;5.60;;;3.20;;
55037;SDS011;40937;53.594;10.034;2022-10-17T08:21:41;6.35;;;3.17;;
55037;SDS011;40937;53.594;10.034;2022-10-17T08:24:09;4.75;;;2.70;;
55037;SDS011;40937;53.594;10.034;2022-10-17T08:26:35;7.35;;;3.63;;
55037;SDS011;40937;53.594;10.034;2022-10-17T08:29:02;5.47;;;2.92;;
55037;SDS011;40937;53.594;10.034;2022-10-17T08:31:29;7.55;;;2.85;;
55037;SDS011;40937;53.594;10.034;2022-10-17T08:33:55;4.82;;;3.20;;
55037;SDS011;40937;53.594;10.034;2022-10-17T08:36:23;7.10;;;3.15;;
55037;SDS011;40937;53.594;10.034;2022-10-17T08:38:50;3.42;;;2.70;;
55037;SDS011;40937;53.594;10.034;2022-10-17T08:41:20;4.40;;;2.88;;
55037;SDS011;40937;53.594;10.034;2022-10-17T08:44:02;7.47;;;3.67;;
55037;SDS011;40937;53.594;10.034;2022-10-17T08:46:37;9.43;;;2.97;;
55037;SDS011;40937;53.594;10.034;2022-10-17T08:49:08;6.47;;;3.30;;
55037;SDS011;40937;53.594;10.034;2022-10-17T08:51:46;5.57;;;3.20;;
55037;SDS011;40937;53.594;10.034;2022-10-17T08:54:18;4.70;;;2.88;;
55037;SDS011;40937;53.594;10.034;2022-10-17T08:56:48;8.88;;;3.28;;
55037;SDS011;40937;53.594;10.034;2022-10-17T08:59:19;3.28;;;2.92;;
55037;SDS011;40937;53.594;10.034;2022-10-17T09:01:48;9.07;;;3.35;;
55037;SDS011;40937;53.594;10.034;2022-10-17T09:07:09;7.72;;;3.40;;
55037;SDS011;40937;53.594;10.034;2022-10-17T09:09:46;5.65;;;3.20;;
55037;SDS011;40937;53.594;10.034;2022-10-17T09:12:19;3.75;;;3.15;;
55037;SDS011;40937;53.594;10.034;2022-10-17T09:14:54;6.57;;;3.13;;
55037;SDS011;40937;53.594;10.034;2022-10-17T09:17:41;8.98;;;3.42;;
55037;SDS011;40937;53.594;10.034;2022-10-17T09:20:17;6.18;;;3.60;;
55037;SDS011;40937;53.594;10.034;2022-10-17T09:22:48;6.22;;;3.10;;
55037;SDS011;40937;53.594;10.034;2022-10-17T09:25:21;6.65;;;3.17;;
55037;SDS011;40937;53.594;10.034;2022-10-17T09:27:48;6.05;;;3.28;;
55037;SDS011;40937;53.594;10.034;2022-10-17T09:30:28;8.18;;;3.35;;
55037;SDS011;40937;53.594;10.034;2022-10-17T09:33:00;4.80;;;3.17;;
55037;SDS011;40937;53.594;10.034;2022-10-17T09:35:36;6.15;;;3.30;;
55037;SDS011;40937;53.594;10.034;2022-10-17T09:38:05;4.85;;;3.08;;
55037;SDS011;40937;53.594;10.034;2022-10-17T09:40:37;6.75;;;3.60;;
55037;SDS011;40937;53.594;10.034;2022-10-17T09:43:05;5.22;;;3.20;;
55037;SDS011;40937;53.594;10.034;2022-10-17T09:45:42;3.55;;;3.10;;
55037;SDS011;40937;53.594;10.034;2022-10-17T09:48:17;6.03;;;2.80;;
55037;SDS011;40937;53.594;10.034;2022-10-17T09:50:50;7.80;;;3.50;;
55037;SDS011;40937;53.594;10.034;2022-10-17T09:53:19;5.88;;;3.40;;
55037;SDS011;40937;53.594;10.034;2022-10-17T09:55:49;5.22;;;3.20;;
55037;SDS011;40937;53.594;10.034;2022-10-17T09:58:19;4.07;;;3.33;;
55037;SDS011;40937;53.594;10.034;2022-10-17T10:00:46;5.00;;;3.15;;
55037;SDS011;40937;53.594;10.034;2022-10-17T10:03:15;4.85;;;3.35;;
55037;SDS011;40937;53.594;10.034;2022-10-17T10:05:56;5.53;;;3.63;;
55037;SDS011;40937;53.594;10.034;2022-10-17T10:08:28;9.55;;;3.80;;
55037;SDS011;40937;53.594;10.034;2022-10-17T10:10:56;7.90;;;3.28;;
55037;SDS011;40937;53.594;10.034;2022-10-17T10:13:27;6.90;;;3.13;;
55037;SDS011;40937;53.594;10.034;2022-10-17T10:15:54;3.70;;;2.83;;
55037;SDS011;40937;53.594;10.034;2022-10-17T10:18:39;7.82;;;2.97;;
55037;SDS011;40937;53.594;10.034;2022-10-17T10:21:07;8.07;;;3.35;;
55037;SDS011;40937;53.594;10.034;2022-10-17T10:23:37;8.50;;;3.97;;
55037;SDS011;40937;53.594;10.034;2022-10-17T10:26:10;5.93;;;3.53;;
55037;SDS011;40937;53.594;10.034;2022-10-17T10:28:49;12.65;;;3.15;;
55037;SDS011;40937;53.594;10.034;2022-10-17T10:31:23;4.00;;;3.63;;
55037;SDS011;40937;53.594;10.034;2022-10-17T10:33:52;10.77;;;3.13;;
55037;SDS011;40937;53.594;10.034;2022-10-17T10:36:19;6.30;;;3.65;;
55037;SDS011;40937;53.594;10.034;2022-10-17T10:38:51;17.35;;;3.83;;
55037;SDS011;40937;53.594;10.034;2022-10-17T10:41:19;6.40;;;3.35;;
55037;SDS011;40937;53.594;10.034;2022-10-17T10:43:46;11.02;;;3.65;;
55037;SDS011;40937;53.594;10.034;2022-10-17T10:46:16;6.40;;;3.35;;
55037;SDS011;40937;53.594;10.034;2022-10-17T10:48:50;7.28;;;4.03;;
55037;SDS011;40937;53.594;10.034;2022-10-17T10:51:20;7.45;;;3.97;;
55037;SDS011;40937;53.594;10.034;2022-10-17T10:53:55;6.72;;;3.83;;
55037;SDS011;40937;53.594;10.034;2022-10-17T10:56:28;5.80;;;3.50;;
55037;SDS011;40937;53.594;10.034;2022-10-17T10:59:00;5.85;;;3.50;;
55037;SDS011;40937;53.594;10.034;2022-10-17T11:01:33;10.55;;;3.53;;
55037;SDS011;40937;53.594;10.034;2022-10-17T11:04:17;11.98;;;3.83;;
55037;SDS011;40937;53.594;10.034;2022-10-17T11:06:48;5.10;;;3.17;;
55037;SDS011;40937;53.594;10.034;2022-10-17T11:09:28;11.95;;;4.07;;
55037;SDS011;40937;53.594;10.034;2022-10-17T11:12:12;5.18;;;3.53;;
55037;SDS011;40937;53.594;10.034;2022-10-17T11:14:45;7.22;;;3.65;;
55037;SDS011;40937;53.594;10.034;2022-10-17T11:17:20;4.32;;;3.70;;
55037;SDS011;40937;53.594;10.034;2022-10-17T11:19:55;8.77;;;3.83;;
55037;SDS011;40937;53.594;10.034;2022-10-17T11:22:29;5.35;;;3.70;;
55037;SDS011;40937;53.594;10.034;2022-10-17T11:24:59;5.97;;;3.90;;
55037;SDS011;40937;53.594;10.034;2022-10-17T11:27:30;4.88;;;3.78;;
55037;SDS011;40937;53.594;10.034;2022-10-17T11:29:59;7.03;;;4.00;;
55037;SDS011;40937;53.594;10.034;2022-10-17T11:32:28;9.02;;;4.03;;
55037;SDS011;40937;53.594;10.034;2022-10-17T11:35:01;8.43;;;3.83;;
55037;SDS011;40937;53.594;10.034;2022-10-17T11:37:33;6.15;;;4.13;;
55037;SDS011;40937;53.594;10.034;2022-10-17T11:40:05;10.43;;;4.13;;
55037;SDS011;40937;53.594;10.034;2022-10-17T11:42:43;5.20;;;4.10;;
55037;SDS011;40937;53.594;10.034;2022-10-17T11:45:17;11.90;;;4.53;;
55037;SDS011;40937;53.594;10.034;2022-10-17T11:47:48;7.35;;;4.22;;
55037;SDS011;40937;53.594;10.034;2022-10-17T11:50:20;8.30;;;4.22;;
55037;SDS011;40937;53.594;10.034;2022-10-17T11:52:50;12.27;;;3.83;;
55037;SDS011;40937;53.594;10.034;2022-10-17T11:55:23;11.93;;;4.40;;
55037;SDS011;40937;53.594;10.034;2022-10-17T11:57:53;5.97;;;4.00;;
55037;SDS011;40937;53.594;10.034;2022-10-17T12:00:30;10.43;;;3.78;;
55037;SDS011;40937;53.594;10.034;2022-10-17T12:03:23;8.25;;;4.03;;
55037;SDS011;40937;53.594;10.034;2022-10-17T12:05:58;6.75;;;3.85;;
55037;SDS011;40937;53.594;10.034;2022-10-17T12:08:34;6.93;;;3.80;;
55037;SDS011;40937;53.594;10.034;2022-10-17T12:11:09;10.50;;;4.82;;
55037;SDS011;40937;53.594;10.034;2022-10-17T12:13:51;13.07;;;4.35;;
55037;SDS011;40937;53.594;10.034;2022-10-17T12:19:19;10.43;;;5.30;;
55037;SDS011;40937;53.594;10.034;2022-10-17T12:21:56;10.50;;;4.88;;
55037;SDS011;40937;53.594;10.034;2022-10-17T12:24:31;14.18;;;5.68;;
55037;SDS011;40937;53.594;10.034;2022-10-17T12:29:57;5.28;;;4.78;;
55037;SDS011;40937;53.594;10.034;2022-10-17T12:32:25;5.78;;;4.95;;
55037;SDS011;40937;53.594;10.034;2022-10-17T12:34:52;10.38;;;5.32;;
55037;SDS011;40937;53.594;10.034;2022-10-17T12:40:47;12.27;;;5.47;;
55037;SDS011;40937;53.594;10.034;2022-10-17T12:43:34;8.82;;;5.22;;
55037;SDS011;40937;53.594;10.034;2022-10-17T12:46:41;8.30;;;4.65;;
55037;SDS011;40937;53.594;10.034;2022-10-17T12:55:00;8.02;;;5.38;;
55037;SDS011;40937;53.594;10.034;2022-10-17T12:57:36;9.05;;;4.97;;
55037;SDS011;40937;53.594;10.034;2022-10-17T13:00:13;9.35;;;5.57;;
55037;SDS011;40937;53.594;10.034;2022-10-17T13:02:44;9.80;;;5.10;;
55037;SDS011;40937;53.594;10.034;2022-10-17T13:05:13;9.63;;;5.10;;
55037;SDS011;40937;53.594;10.034;2022-10-17T13:10:19;6.28;;;4.82;;
55037;SDS011;40937;53.594;10.034;2022-10-17T13:12:48;6.50;;;4.82;;
55037;SDS011;40937;53.594;10.034;2022-10-17T13:15:18;8.05;;;5.50;;
55037;SDS011;40937;53.594;10.034;2022-10-17T13:17:53;10.15;;;5.10;;
55037;SDS011;40937;53.594;10.034;2022-10-17T13:20:22;8.20;;;5.25;;
55037;SDS011;40937;53.594;10.034;2022-10-17T13:22:52;9.95;;;5.95;;
55037;SDS011;40937;53.594;10.034;2022-10-17T13:25:20;8.68;;;6.15;;
55037;SDS011;40937;53.594;10.034;2022-10-17T13:27:48;9.30;;;6.03;;
55037;SDS011;40937;53.594;10.034;2022-10-17T13:30:27;10.32;;;6.28;;
55037;SDS011;40937;53.594;10.034;2022-10-17T13:32:55;11.00;;;6.22;;
55037;SDS011;40937;53.594;10.034;2022-10-17T13:35:23;7.00;;;6.15;;
55037;SDS011;40937;53.594;10.034;2022-10-17T13:37:52;8.90;;;5.88;;
55037;SDS011;40937;53.594;10.034;2022-10-17T13:40:21;10.52;;;6.47;;
55037;SDS011;40937;53.594;10.034;2022-10-17T13:42:49;17.83;;;6.32;;
55037;SDS011;40937;53.594;10.034;2022-10-17T13:45:19;8.90;;;7.35;;
55037;SDS011;40937;53.594;10.034;2022-10-17T13:47:50;8.80;;;6.10;;
55037;SDS011;40937;53.594;10.034;2022-10-17T13:50:26;8.45;;;7.47;;
55037;SDS011;40937;53.594;10.034;2022-10-17T13:53:07;7.70;;;7.00;;
55037;SDS011;40937;53.594;10.034;2022-10-17T13:55:49;8.75;;;6.85;;
55037;SDS011;40937;53.594;10.034;2022-10-17T13:58:17;8.30;;;6.68;;
55037;SDS011;40937;53.594;10.034;2022-10-17T14:00:44;6.97;;;6.43;;
55037;SDS011;40937;53.594;10.034;2022-10-17T14:03:12;9.35;;;7.55;;
55037;SDS011;40937;53.594;10.034;2022-10-17T14:08:28;7.10;;;6.30;;
55037;SDS011;40937;53.594;10.034;2022-10-17T14:10:57;7.85;;;6.78;;
55037;SDS011;40937;53.594;10.034;2022-10-17T14:13:25;7.85;;;6.93;;
55037;SDS011;40937;53.594;10.034;2022-10-17T14:15:55;8.48;;;7.43;;
55037;SDS011;40937;53.594;10.034;2022-10-17T14:18:26;13.35;;;7.30;;
55037;SDS011;40937;53.594;10.034;2022-10-17T14:20:56;8.57;;;7.50;;
55037;SDS011;40937;53.594;10.034;2022-10-17T14:23:27;9.90;;;6.60;;
55037;SDS011;40937;53.594;10.034;2022-10-17T14:28:40;10.85;;;7.95;;
55037;SDS011;40937;53.594;10.034;2022-10-17T14:31:09;8.43;;;7.63;;
55037;SDS011;40937;53.594;10.034;2022-10-17T14:33:44;10.60;;;6.90;;
55037;SDS011;40937;53.594;10.034;2022-10-17T14:36:12;9.85;;;7.38;;
55037;SDS011;40937;53.594;10.034;2022-10-17T14:38:43;12.23;;;7.35;;
55037;SDS011;40937;53.594;10.034;2022-10-17T14:41:12;13.45;;;7.30;;
55037;SDS011;40937;53.594;10.034;2022-10-17T14:43:52;7.45;;;6.75;;
55037;SDS011;40937;53.594;10.034;2022-10-17T14:46:21;10.10;;;7.55;;
55037;SDS011;40937;53.594;10.034;2022-10-17T14:48:52;10.27;;;7.05;;
55037;SDS011;40937;53.594;10.034;2022-10-17T14:51:20;13.07;;;8.60;;
55037;SDS011;40937;53.594;10.034;2022-10-17T14:53:58;8.20;;;7.40;;
55037;SDS011;40937;53.594;10.034;2022-10-17T14:56:32;9.43;;;8.43;;
55037;SDS011;40937;53.594;10.034;2022-10-17T14:59:01;11.02;;;7.68;;
55037;SDS011;40937;53.594;10.034;2022-10-17T15:01:29;7.95;;;7.25;;
55037;SDS011;40937;53.594;10.034;2022-10-17T15:03:58;9.02;;;8.10;;
55037;SDS011;40937;53.594;10.034;2022-10-17T15:06:26;8.68;;;7.80;;
55037;SDS011;40937;53.594;10.034;2022-10-17T15:08:54;8.23;;;7.50;;
55037;SDS011;40937;53.594;10.034;2022-10-17T15:11:20;8.88;;;8.02;;
55037;SDS011;40937;53.594;10.034;2022-10-17T15:13:47;8.73;;;7.93;;
55037;SDS011;40937;53.594;10.034;2022-10-17T15:16:14;16.13;;;8.95;;
55037;SDS011;40937;53.594;10.034;2022-10-17T15:18:44;9.43;;;8.60;;
55037;SDS011;40937;53.594;10.034;2022-10-17T15:21:12;10.02;;;9.02;;
55037;SDS011;40937;53.594;10.034;2022-10-17T15:23:39;9.52;;;8.50;;
55037;SDS011;40937;53.594;10.034;2022-10-17T15:26:13;9.65;;;8.65;;
55037;SDS011;40937;53.594;10.034;2022-10-17T15:28:45;9.07;;;8.35;;
55037;SDS011;40937;53.594;10.034;2022-10-17T15:31:14;9.73;;;8.38;;
55037;SDS011;40937;53.594;10.034;2022-10-17T15:33:42;9.63;;;8.75;;
55037;SDS011;40937;53.594;10.034;2022-10-17T15:36:23;11.73;;;8.98;;